createdAt,value
2022-08-04T00:02:53.830Z,21.70
2022-08-04T00:05:57.854Z,21.60
2022-08-04T00:08:46.283Z,21.70
2022-08-04T00:11:19.865Z,21.80
2022-08-04T00:14:03.146Z,21.60
2022-08-04T00:16:37.579Z,21.60
2022-08-04T00:19:31.840Z,21.50
2022-08-04T00:22:05.089Z,21.70
2022-08-04T00:24:33.885Z,21.90
2022-08-04T00:27:00.642Z,22.00
2022-08-04T00:29:27.783Z,22.00
2022-08-04T00:31:57.859Z,21.80
2022-08-04T00:34:29.423Z,21.70
2022-08-04T00:36:57.185Z,21.50
2022-08-04T00:39:24.408Z,21.40
2022-08-04T00:42:09.854Z,21.30
2022-08-04T00:44:53.583Z,21.10
2022-08-04T00:47:40.370Z,21.10
2022-08-04T00:50:11.424Z,21.10
2022-08-04T00:52:47.310Z,21.20
2022-08-04T00:55:30.017Z,21.30
2022-08-04T00:58:19.009Z,21.20
2022-08-04T01:01:05.795Z,21.10
2022-08-04T01:03:50.668Z,20.90
2022-08-04T01:06:38.180Z,20.80
2022-08-04T01:09:23.666Z,20.70
2022-08-04T01:12:09.346Z,20.80
2022-08-04T01:14:47.384Z,20.90
2022-08-04T01:17:22.736Z,20.90
2022-08-04T01:20:09.961Z,21.00
2022-08-04T01:23:07.508Z,21.00
2022-08-04T01:25:57.471Z,21.00
2022-08-04T01:28:38.940Z,20.80
2022-08-04T01:31:35.786Z,20.80
2022-08-04T01:34:06.556Z,20.90
2022-08-04T01:36:35.826Z,20.90
2022-08-04T01:39:24.900Z,20.90
2022-08-04T01:41:58.506Z,20.90
2022-08-04T01:44:29.599Z,20.90
2022-08-04T01:46:56.602Z,20.80
2022-08-04T01:49:29.983Z,20.60
2022-08-04T01:52:09.295Z,20.60
2022-08-04T01:54:39.456Z,20.60
2022-08-04T01:57:38.713Z,20.60
2022-08-04T01:59:58.298Z,20.50
2022-08-04T02:02:25.158Z,20.40
2022-08-04T02:04:52.129Z,20.40
2022-08-04T02:07:31.036Z,20.40
2022-08-04T02:10:08.483Z,20.40
2022-08-04T02:13:07.378Z,20.30
2022-08-04T02:15:52.753Z,20.00
2022-08-04T02:18:33.257Z,19.70
2022-08-04T02:21:03.596Z,19.60
2022-08-04T02:23:38.915Z,19.70
2022-08-04T02:26:19.357Z,19.60
2022-08-04T02:28:52.222Z,19.50
2022-08-04T02:31:31.608Z,19.40
2022-08-04T02:34:03.864Z,19.40
2022-08-04T02:36:41.799Z,19.50
2022-08-04T02:39:11.045Z,19.50
2022-08-04T02:41:40.176Z,19.50
2022-08-04T02:44:09.217Z,19.60
2022-08-04T02:46:37.585Z,19.70
2022-08-04T02:49:09.418Z,19.70
2022-08-04T02:51:40.318Z,19.70
2022-08-04T02:54:07.373Z,19.60
2022-08-04T02:56:35.580Z,19.50
2022-08-04T02:59:05.689Z,19.40
2022-08-04T03:01:33.156Z,19.00
2022-08-04T03:04:24.722Z,18.90
2022-08-04T03:06:57.828Z,18.80
2022-08-04T03:09:46.514Z,18.70
2022-08-04T03:12:30.989Z,18.70
2022-08-04T03:15:28.955Z,18.60
2022-08-04T03:18:37.286Z,18.60
2022-08-04T03:21:22.246Z,18.70
2022-08-04T03:24:08.784Z,18.60
2022-08-04T03:26:55.195Z,18.60
2022-08-04T03:29:36.036Z,18.60
2022-08-04T03:32:31.102Z,18.70
2022-08-04T03:35:03.540Z,18.90
2022-08-04T03:37:58.158Z,18.90
2022-08-04T03:40:33.692Z,18.90
2022-08-04T03:43:57.314Z,19.00
2022-08-04T03:46:35.451Z,19.00
2022-08-04T03:49:34.112Z,19.10
2022-08-04T03:53:03.502Z,19.10
2022-08-04T03:55:54.906Z,19.00
2022-08-04T03:58:49.746Z,19.00
2022-08-04T04:02:06.868Z,19.00
2022-08-04T04:04:33.767Z,18.90
2022-08-04T04:07:36.459Z,18.80
2022-08-04T04:10:26.569Z,18.80
2022-08-04T04:13:27.214Z,18.60
2022-08-04T04:16:23.778Z,18.50
2022-08-04T04:18:56.067Z,18.60
2022-08-04T04:21:39.479Z,18.70
2022-08-04T04:24:32.744Z,18.90
2022-08-04T04:27:10.013Z,19.00
2022-08-04T04:29:51.612Z,19.00
2022-08-04T04:32:36.265Z,19.00
2022-08-04T04:35:19.998Z,19.00
2022-08-04T04:37:48.600Z,19.00
2022-08-04T04:40:32.771Z,18.90
2022-08-04T04:43:16.185Z,19.00
2022-08-04T04:46:10.336Z,18.90
2022-08-04T04:48:45.762Z,19.00
2022-08-04T04:51:51.177Z,18.90
2022-08-04T04:54:43.709Z,18.90
2022-08-04T04:57:15.310Z,19.10
2022-08-04T04:59:56.456Z,19.10
2022-08-04T05:02:41.854Z,19.10
2022-08-04T05:05:39.489Z,19.20
2022-08-04T05:08:42.727Z,19.30
2022-08-04T05:11:54.362Z,19.50
2022-08-04T05:14:39.852Z,19.90
2022-08-04T05:17:16.654Z,20.40
2022-08-04T05:19:57.613Z,20.80
2022-08-04T05:22:32.619Z,21.30
2022-08-04T05:25:04.825Z,21.80
2022-08-04T05:27:49.077Z,22.20
2022-08-04T05:30:17.363Z,22.60
2022-08-04T05:32:54.777Z,22.90
2022-08-04T05:36:16.303Z,23.00
2022-08-04T05:38:31.083Z,23.30
2022-08-04T05:40:59.097Z,23.50
2022-08-04T05:43:26.622Z,23.50
2022-08-04T05:45:54.461Z,23.70
2022-08-04T05:48:22.147Z,23.90
2022-08-04T05:50:49.493Z,24.10
2022-08-04T05:53:17.907Z,24.50
2022-08-04T05:55:56.608Z,24.90
2022-08-04T05:58:30.532Z,25.10
2022-08-04T06:01:01.626Z,25.50
2022-08-04T06:03:30.638Z,25.70
2022-08-04T06:05:57.879Z,25.90
2022-08-04T06:08:25.211Z,25.70
2022-08-04T06:10:54.015Z,25.50
2022-08-04T06:13:49.687Z,25.40
2022-08-04T06:16:28.795Z,25.60
2022-08-04T06:20:01.047Z,25.70
2022-08-04T06:21:52.383Z,25.70
2022-08-04T06:24:22.191Z,25.90
2022-08-04T06:26:50.500Z,25.90
2022-08-04T06:29:36.481Z,25.90
2022-08-04T06:32:27.209Z,25.90
2022-08-04T06:34:58.896Z,26.50
2022-08-04T06:37:42.172Z,26.90
2022-08-04T06:40:29.654Z,26.90
2022-08-04T06:43:00.709Z,27.20
2022-08-04T06:45:28.500Z,27.30
2022-08-04T06:47:56.670Z,27.50
2022-08-04T06:51:25.896Z,27.40
2022-08-04T06:53:12.078Z,27.70
2022-08-04T06:55:40.778Z,27.60
2022-08-04T06:58:08.407Z,28.10
2022-08-04T07:00:36.779Z,28.50
2022-08-04T07:03:04.373Z,28.60
2022-08-04T07:05:31.968Z,28.30
2022-08-04T07:07:59.443Z,28.20
2022-08-04T07:10:28.333Z,28.70
2022-08-04T07:12:56.781Z,29.20
2022-08-04T07:15:25.262Z,29.00
2022-08-04T07:17:53.644Z,29.00
2022-08-04T07:20:33.007Z,29.50
2022-08-04T07:23:03.906Z,29.60
2022-08-04T07:26:00.166Z,30.10
2022-08-04T07:28:18.821Z,30.40
2022-08-04T07:30:48.164Z,30.40
2022-08-04T07:33:16.646Z,30.20
2022-08-04T07:36:04.479Z,30.40
2022-08-04T07:38:30.862Z,30.40
2022-08-04T07:40:59.871Z,30.70
2022-08-04T07:43:27.645Z,30.90
2022-08-04T07:45:54.399Z,30.90
2022-08-04T07:48:23.106Z,30.70
2022-08-04T07:50:51.431Z,30.60
2022-08-04T07:53:55.012Z,30.40
2022-08-04T07:56:06.097Z,30.30
2022-08-04T07:58:32.839Z,30.60
2022-08-04T08:01:00.344Z,30.90
2022-08-04T08:03:27.725Z,31.20
2022-08-04T08:06:17.524Z,31.50
2022-08-04T08:08:41.177Z,31.50
2022-08-04T08:11:09.248Z,30.90
2022-08-04T08:13:37.160Z,30.70
2022-08-04T08:16:05.049Z,31.10
2022-08-04T08:18:32.154Z,31.50
2022-08-04T08:20:59.061Z,31.70
2022-08-04T08:23:26.475Z,31.90
2022-08-04T08:25:53.358Z,32.00
2022-08-04T08:28:20.292Z,31.60
2022-08-04T08:30:52.792Z,31.80
2022-08-04T08:33:21.687Z,31.70
2022-08-04T08:36:01.546Z,31.80
2022-08-04T08:38:53.990Z,31.70
2022-08-04T08:41:20.692Z,31.90
2022-08-04T08:44:36.368Z,31.60
2022-08-04T08:47:13.450Z,31.70
2022-08-04T08:50:04.435Z,31.80
2022-08-04T08:53:01.272Z,32.00
2022-08-04T08:56:06.618Z,32.10
2022-08-04T08:59:41.106Z,32.30
2022-08-04T09:03:04.287Z,32.20
2022-08-04T09:05:51.060Z,32.10
2022-08-04T09:08:55.282Z,32.20
2022-08-04T09:11:28.913Z,32.00
2022-08-04T09:14:10.488Z,32.10
2022-08-04T09:16:44.947Z,32.40
2022-08-04T09:19:48.568Z,32.10
2022-08-04T09:22:33.503Z,32.10
2022-08-04T09:25:18.404Z,31.60
2022-08-04T09:27:56.775Z,32.00
2022-08-04T09:30:46.958Z,32.20
2022-08-04T09:33:44.519Z,32.30
2022-08-04T09:36:48.446Z,32.60
2022-08-04T09:39:33.238Z,32.70
2022-08-04T09:42:14.702Z,32.60
2022-08-04T09:45:26.030Z,32.60
2022-08-04T09:47:58.908Z,32.80
2022-08-04T09:50:46.913Z,32.80
2022-08-04T09:53:53.767Z,33.00
2022-08-04T09:56:27.060Z,33.20
2022-08-04T09:59:07.833Z,33.50
2022-08-04T10:01:36.698Z,33.40
2022-08-04T10:04:07.474Z,33.40
2022-08-04T10:07:00.698Z,33.20
2022-08-04T10:09:39.063Z,33.10
2022-08-04T10:12:12.071Z,33.30
2022-08-04T10:14:59.886Z,33.60
2022-08-04T10:17:33.449Z,33.90
2022-08-04T10:20:34.023Z,34.00
2022-08-04T10:23:12.919Z,34.00
2022-08-04T10:26:06.836Z,34.00
2022-08-04T10:28:51.684Z,33.80
2022-08-04T10:31:30.054Z,33.40
2022-08-04T10:34:22.269Z,33.50
2022-08-04T10:36:56.228Z,33.20
2022-08-04T10:39:43.702Z,33.60
2022-08-04T10:42:24.989Z,33.80
2022-08-04T10:45:19.664Z,34.00
2022-08-04T10:48:11.013Z,33.90
2022-08-04T10:50:42.561Z,34.00
2022-08-04T10:53:17.239Z,34.20
2022-08-04T10:56:06.399Z,34.00
2022-08-04T10:58:49.704Z,34.10
2022-08-04T11:02:00.838Z,34.20
2022-08-04T11:04:40.018Z,34.20
2022-08-04T11:07:08.600Z,34.30
2022-08-04T11:09:35.839Z,34.30
2022-08-04T11:12:25.316Z,34.50
2022-08-04T11:15:16.764Z,34.60
2022-08-04T11:17:50.276Z,34.60
2022-08-04T11:20:36.487Z,34.60
2022-08-04T11:23:12.885Z,34.60
2022-08-04T11:26:00.606Z,35.00
2022-08-04T11:28:56.052Z,34.80
2022-08-04T11:31:34.538Z,35.00
2022-08-04T11:34:20.908Z,35.00
2022-08-04T11:37:13.775Z,35.40
2022-08-04T11:39:50.081Z,35.40
2022-08-04T11:42:23.036Z,35.70
2022-08-04T11:44:51.697Z,35.80
2022-08-04T11:47:30.279Z,35.70
2022-08-04T11:50:02.847Z,35.50
2022-08-04T11:52:32.476Z,35.30
2022-08-04T11:55:02.400Z,35.40
2022-08-04T11:57:35.869Z,35.70
2022-08-04T12:00:09.954Z,35.80
2022-08-04T12:02:39.896Z,35.90
2022-08-04T12:05:09.224Z,36.00
2022-08-04T12:07:50.449Z,36.00
2022-08-04T12:10:50.421Z,35.90
2022-08-04T12:13:40.608Z,35.80
2022-08-04T12:16:18.230Z,35.80
2022-08-04T12:19:05.868Z,36.20
2022-08-04T12:21:53.009Z,36.30
2022-08-04T12:24:26.046Z,36.10
2022-08-04T12:26:56.907Z,36.30
2022-08-04T12:29:26.041Z,36.20
2022-08-04T12:32:00.457Z,36.20
2022-08-04T12:34:33.956Z,36.40
2022-08-04T12:37:26.646Z,36.30
2022-08-04T12:40:27.310Z,36.20
2022-08-04T12:42:59.740Z,35.90
2022-08-04T12:45:27.427Z,36.00
2022-08-04T12:47:58.851Z,35.90
2022-08-04T12:50:26.480Z,35.70
2022-08-04T12:53:04.318Z,35.60
2022-08-04T12:55:34.051Z,35.80
2022-08-04T12:58:03.889Z,36.00
2022-08-04T13:00:40.542Z,36.20
2022-08-04T13:03:16.771Z,36.40
2022-08-04T13:05:44.904Z,36.60
2022-08-04T13:08:12.977Z,36.10
2022-08-04T13:10:46.334Z,36.30
2022-08-04T13:13:26.919Z,36.50
2022-08-04T13:16:02.610Z,36.60
2022-08-04T13:18:33.340Z,36.60
2022-08-04T13:21:20.147Z,36.30
2022-08-04T13:24:10.489Z,36.50
2022-08-04T13:26:56.923Z,36.30
2022-08-04T13:29:57.795Z,35.90
2022-08-04T13:32:20.366Z,36.10
2022-08-04T13:34:52.592Z,36.00
2022-08-04T13:37:31.869Z,36.00
2022-08-04T13:39:59.603Z,36.30
2022-08-04T13:42:27.196Z,36.10
2022-08-04T13:44:58.563Z,36.10
2022-08-04T13:47:35.224Z,36.20
2022-08-04T13:50:23.635Z,36.30
2022-08-04T13:52:53.158Z,36.00
2022-08-04T13:55:22.549Z,36.30
2022-08-04T13:57:54.725Z,36.30
2022-08-04T14:00:29.161Z,36.20
2022-08-04T14:03:19.190Z,36.30
2022-08-04T14:06:16.092Z,36.00
2022-08-04T14:09:00.738Z,36.10
2022-08-04T14:12:09.750Z,36.30
2022-08-04T14:14:34.982Z,36.50
2022-08-04T14:17:20.370Z,36.70
2022-08-04T14:19:47.903Z,36.60
2022-08-04T14:22:26.877Z,36.50
2022-08-04T14:25:17.107Z,36.90
2022-08-04T14:27:52.878Z,37.30
2022-08-04T14:30:37.145Z,36.90
2022-08-04T14:34:02.343Z,36.70
2022-08-04T14:36:03.933Z,37.00
2022-08-04T14:38:44.141Z,37.00
2022-08-04T14:41:11.677Z,36.60
2022-08-04T14:44:03.063Z,36.60
2022-08-04T14:46:36.952Z,36.20
2022-08-04T14:49:10.230Z,36.10
2022-08-04T14:51:45.608Z,36.00
2022-08-04T14:54:18.360Z,35.80
2022-08-04T14:56:58.250Z,35.90
2022-08-04T14:59:25.339Z,36.20
2022-08-04T15:02:01.095Z,36.50
2022-08-04T15:04:31.519Z,36.60
2022-08-04T15:07:04.374Z,36.80
2022-08-04T15:09:33.057Z,36.60
2022-08-04T15:12:00.298Z,36.20
2022-08-04T15:14:36.367Z,36.00
2022-08-04T15:17:11.476Z,35.50
2022-08-04T15:19:39.988Z,35.40
2022-08-04T15:22:07.346Z,35.20
2022-08-04T15:24:44.441Z,35.20
2022-08-04T15:27:21.665Z,35.10
2022-08-04T15:29:59.366Z,35.00
2022-08-04T15:32:34.095Z,35.00
2022-08-04T15:35:09.778Z,35.00
2022-08-04T15:38:00.038Z,34.90
2022-08-04T15:40:52.340Z,35.00
2022-08-04T15:43:40.400Z,35.20
2022-08-04T15:46:42.411Z,35.20
2022-08-04T15:48:53.945Z,35.00
2022-08-04T15:51:31.747Z,34.70
2022-08-04T15:54:03.650Z,34.40
2022-08-04T15:56:30.946Z,34.40
2022-08-04T15:58:58.220Z,34.40
2022-08-04T16:01:25.295Z,34.10
2022-08-04T16:03:58.946Z,33.90
2022-08-04T16:06:29.835Z,33.90
2022-08-04T16:09:01.703Z,33.90
2022-08-04T16:11:32.852Z,33.90
2022-08-04T16:14:02.573Z,33.80
2022-08-04T16:16:42.097Z,33.80
2022-08-04T16:19:16.638Z,33.80
2022-08-04T16:21:58.375Z,33.80
2022-08-04T16:24:38.277Z,33.70
2022-08-04T16:27:17.391Z,33.40
2022-08-04T16:29:47.057Z,33.30
2022-08-04T16:32:16.872Z,33.20
2022-08-04T16:35:04.791Z,33.10
2022-08-04T16:37:37.628Z,33.20
2022-08-04T16:40:33.751Z,33.30
2022-08-04T16:43:06.499Z,33.30
2022-08-04T16:46:03.686Z,33.20
2022-08-04T16:48:31.924Z,33.20
2022-08-04T16:51:31.253Z,33.20
2022-08-04T16:54:05.587Z,33.20
2022-08-04T16:56:35.360Z,33.10
2022-08-04T16:59:07.367Z,33.00
2022-08-04T17:01:34.680Z,33.00
2022-08-04T17:04:05.267Z,32.80
2022-08-04T17:06:40.188Z,32.80
2022-08-04T17:09:14.261Z,32.70
2022-08-04T17:11:42.659Z,32.60
2022-08-04T17:14:09.863Z,32.60
2022-08-04T17:16:40.185Z,32.60
2022-08-04T17:19:24.096Z,32.50
2022-08-04T17:22:04.541Z,32.50
2022-08-04T17:24:38.555Z,32.40
2022-08-04T17:28:20.555Z,32.30
2022-08-04T17:29:53.289Z,32.30
2022-08-04T17:32:21.848Z,32.20
2022-08-04T17:34:55.353Z,32.20
2022-08-04T17:37:41.306Z,32.10
2022-08-04T17:40:17.864Z,32.10
2022-08-04T17:42:45.763Z,31.90
2022-08-04T17:45:50.765Z,31.90
2022-08-04T17:48:24.441Z,31.80
2022-08-04T17:50:51.983Z,31.70
2022-08-04T17:54:01.761Z,31.60
2022-08-04T17:56:34.089Z,31.60
2022-08-04T17:59:57.029Z,31.50
2022-08-04T18:02:05.557Z,31.40
2022-08-04T18:04:39.574Z,31.30
2022-08-04T18:08:38.248Z,31.20
2022-08-04T18:10:43.271Z,31.10
2022-08-04T18:13:21.626Z,30.70
2022-08-04T18:15:48.488Z,30.60
2022-08-04T18:18:23.254Z,30.50
2022-08-04T18:20:50.636Z,30.40
2022-08-04T18:23:17.544Z,30.40
2022-08-04T18:25:51.799Z,30.30
2022-08-04T18:28:26.541Z,30.20
2022-08-04T18:30:55.496Z,30.10
2022-08-04T18:33:37.482Z,29.90
2022-08-04T18:36:34.418Z,29.70
2022-08-04T18:38:55.548Z,29.50
2022-08-04T18:41:26.454Z,29.30
2022-08-04T18:43:56.077Z,29.30
2022-08-04T18:46:27.187Z,29.30
2022-08-04T18:48:54.627Z,29.20
2022-08-04T18:51:25.137Z,28.90
2022-08-04T18:53:58.869Z,28.70
2022-08-04T18:56:29.792Z,28.60
2022-08-04T18:59:00.568Z,28.30
2022-08-04T19:04:34.110Z,28.30
2022-08-04T19:07:28.645Z,28.40
2022-08-04T19:09:51.812Z,28.40
2022-08-04T19:12:26.692Z,28.40
2022-08-04T19:15:10.257Z,28.30
2022-08-04T19:17:53.701Z,28.20
2022-08-04T19:20:28.085Z,28.10
2022-08-04T19:24:10.159Z,28.10
2022-08-04T19:28:34.976Z,28.00
2022-08-04T19:31:07.356Z,27.90
2022-08-04T19:33:58.929Z,27.80
2022-08-04T19:36:27.715Z,27.80
2022-08-04T19:38:57.380Z,27.80
2022-08-04T19:41:26.546Z,27.80
2022-08-04T19:43:54.417Z,27.70
2022-08-04T19:46:21.543Z,27.70
2022-08-04T19:48:59.838Z,27.60
2022-08-04T19:51:28.881Z,27.50
2022-08-04T19:54:03.997Z,27.40
2022-08-04T19:56:40.668Z,27.20
2022-08-04T19:59:11.033Z,27.00
2022-08-04T20:01:44.380Z,27.00
2022-08-04T20:04:11.776Z,27.00
2022-08-04T20:06:39.534Z,27.10
2022-08-04T20:09:26.586Z,26.90
2022-08-04T20:11:53.421Z,26.90
2022-08-04T20:14:31.399Z,26.90
2022-08-04T20:17:03.354Z,26.90
2022-08-04T20:19:37.794Z,26.70
2022-08-04T20:22:04.845Z,26.70
2022-08-04T20:24:44.162Z,26.70
2022-08-04T20:27:17.377Z,26.70
2022-08-04T20:29:49.229Z,26.70
2022-08-04T20:32:27.005Z,26.60
2022-08-04T20:34:56.330Z,26.70
2022-08-04T20:37:25.084Z,26.60
2022-08-04T20:39:58.619Z,26.50
2022-08-04T20:42:33.760Z,26.40
2022-08-04T20:45:01.424Z,26.20
2022-08-04T20:47:35.191Z,26.10
2022-08-04T20:50:16.118Z,26.10
2022-08-04T20:52:44.223Z,26.00
2022-08-04T20:55:10.964Z,25.90
2022-08-04T20:57:48.560Z,25.90
2022-08-04T21:00:29.764Z,25.90
2022-08-04T21:02:57.858Z,25.90
2022-08-04T21:05:26.442Z,25.80
2022-08-04T21:07:56.826Z,25.70
2022-08-04T21:10:27.454Z,25.80
2022-08-04T21:12:54.445Z,25.80
2022-08-04T21:15:25.634Z,25.60
2022-08-04T21:17:58.777Z,25.70
2022-08-04T21:20:32.334Z,25.60
2022-08-04T21:23:02.378Z,25.70
2022-08-04T21:25:32.309Z,25.80
2022-08-04T21:28:09.792Z,25.70
2022-08-04T21:30:39.802Z,25.70
2022-08-04T21:33:20.365Z,25.60
2022-08-04T21:35:48.950Z,25.50
2022-08-04T21:38:28.067Z,25.60
2022-08-04T21:41:01.967Z,25.60
2022-08-04T21:43:30.055Z,25.60
2022-08-04T21:46:09.549Z,25.60
2022-08-04T21:48:38.289Z,25.50
2022-08-04T21:52:00.106Z,25.50
2022-08-04T21:54:11.648Z,25.60
2022-08-04T21:56:42.156Z,25.60
2022-08-04T21:59:18.485Z,25.60
2022-08-04T22:01:54.551Z,25.70
2022-08-04T22:04:21.674Z,25.70
2022-08-04T22:06:52.521Z,25.70
2022-08-04T22:09:21.684Z,25.70
2022-08-04T22:11:50.995Z,25.60
2022-08-04T22:14:27.278Z,25.60
2022-08-04T22:16:57.023Z,25.50
2022-08-04T22:19:39.779Z,25.50
2022-08-04T22:22:09.613Z,25.40
2022-08-04T22:24:40.434Z,25.30
2022-08-04T22:27:11.965Z,25.30
2022-08-04T22:29:39.413Z,25.20
2022-08-04T22:32:11.636Z,25.10
2022-08-04T22:34:40.159Z,25.00
2022-08-04T22:37:12.732Z,25.00
2022-08-04T22:39:56.833Z,25.00
2022-08-04T22:42:24.122Z,24.90
2022-08-04T22:44:51.075Z,24.70
2022-08-04T22:47:20.094Z,24.60
2022-08-04T22:49:56.459Z,24.60
2022-08-04T22:52:34.473Z,24.70
2022-08-04T22:55:01.212Z,24.80
2022-08-04T22:57:43.454Z,24.70
2022-08-04T23:00:15.598Z,24.70
2022-08-04T23:02:43.401Z,24.60
2022-08-04T23:05:10.993Z,24.60
2022-08-04T23:07:49.167Z,24.60
2022-08-04T23:10:16.344Z,24.60
2022-08-04T23:12:43.045Z,24.70
2022-08-04T23:15:13.246Z,24.60
2022-08-04T23:17:47.689Z,24.60
2022-08-04T23:20:22.945Z,24.50
2022-08-04T23:22:55.807Z,24.50
2022-08-04T23:25:32.989Z,24.50
2022-08-04T23:28:09.404Z,24.60
2022-08-04T23:30:36.048Z,24.60
2022-08-04T23:33:02.769Z,24.50
2022-08-04T23:35:31.905Z,24.30
2022-08-04T23:38:00.057Z,24.30
2022-08-04T23:40:50.585Z,24.30
2022-08-04T23:43:18.256Z,24.30
2022-08-04T23:46:04.387Z,24.30
2022-08-04T23:48:35.790Z,24.10
2022-08-04T23:51:14.136Z,24.00
2022-08-04T23:54:02.134Z,23.90
2022-08-04T23:56:32.249Z,23.80
2022-08-04T23:59:00.048Z,23.90
